Waukenabo, Minnesota
Current Conditions -  °F | °C
As of 3:13 AM on Thursday 27 Nov 2014 (Local Time) from KAIT Reporting Station
Clear Clear  
Wind Chill: -2°   Ceiling: Unl
Heat Index: -2°   Visibility: 10mi
Dew Point: -9°   Wind: 3mph
Humidity: 71%   Direction: 310°NW
Pressure: 30.45"   Gusts: NA
Location:  46.7281°N, 93.6101°W
Report Text: KAIT 270913Z AUTO 31003KT 10SM CLR M19/M23 A3045 RMK AO2
Loading
Personal Weather Stations






























Interactive Weather Map New forecast layout! Learn more

10-Day Weather Forecast

Advertisements
Track Severe Weather on mobile